Back to top

Rawlins, WY weather

Rawlins Municipal Airport/Harvey Field, Rawlins, WY: 11/13/2019 16:53
Visibility10 statute milessun with a few clouds
View 7-Day Forecast
Area Summary
Sky/CloudsFew at 6000ft
Weather [last 24 hours]None [rain began 17:39 ended 17:53; rain began 23:33; rain ended 00:18; rain began 03:47 ]
Pressure30.07 in.Hg (1018 hPa)
3-hour Pressure Tendency0.005905 in.Hg (0.2 hPa) Decreasing, then steady, or decreasing then decreasing more slowly
Dew Point23 °F (-5 °C)
Relative Humidity50.4 %
Last 24-Hour Precip.Trace
Reading TimePrecipitation
6-hr ending 11/13@04:53Trace
6-hr ending 11/12@22:53Trace
Temperature39.9 °F (4.4 °C)red thermometer
Wind Chill35.1 °F (1.71 °C)
Reading TimeMinimum to Maximum Temperature
6-hr ending 11/13@16:5339.9 °F to 48 °F (4.4 °C to 8.9 °C)
6-hr ending 11/13@10:5333.1 °F to 45 °F (0.6 °C to 7.2 °C)
6-hr ending 11/13@04:5337 °F to 42.1 °F (2.8 °C to 5.6 °C)
6-hr ending 11/12@22:5339.9 °F to 43 °F (4.4 °C to 6.1 °C)
24-hr ending 11/12@23:536.1 °F to 46 °F (-14.4 °C to 7.8 °C)
Wind6.9 MPH (6 KT) green arrow pointing 270 degrees
Wind FromWest (280 Degrees)
Rolling 24-hr Peak Wind42.6 MPH (37 KT) on 11/12@23:35
Rolling 24-hr Peak Wind FromWest/Southwest (240 Degrees)
Twilight Begins06:25Sunshine Yesterday
Sunrise06:55N/A
Sunset16:51
Twilight Ends17:21
METARKRWL 132353Z AUTO 28006KT 10SM FEW060 04/M05 A3007 RMK AO2 SLP163 T00441050 10089 20044 56002
Tags: